createdAt,value
2018-05-26T00:01:30.461Z,17.86
2018-05-26T00:03:58.750Z,17.88
2018-05-26T00:06:27.034Z,17.84
2018-05-26T00:08:55.321Z,17.78
2018-05-26T00:11:24.365Z,17.75
2018-05-26T00:13:52.664Z,17.77
2018-05-26T00:16:20.909Z,17.70
2018-05-26T00:18:49.168Z,17.73
2018-05-26T00:21:17.454Z,17.68
2018-05-26T00:23:45.735Z,17.60
2018-05-26T00:26:14.052Z,17.61
2018-05-26T00:28:42.373Z,17.59
2018-05-26T00:31:10.628Z,17.61
2018-05-26T00:33:40.043Z,17.58
2018-05-26T00:36:11.415Z,17.58
2018-05-26T00:38:43.456Z,17.53
2018-05-26T00:41:15.739Z,17.54
2018-05-26T00:43:51.373Z,17.50
2018-05-26T00:46:23.746Z,17.38
2018-05-26T00:48:54.362Z,17.25
2018-05-26T00:51:22.979Z,17.25
2018-05-26T00:53:51.230Z,17.30
2018-05-26T00:56:20.261Z,17.23
2018-05-26T00:58:48.535Z,17.21
2018-05-26T01:01:16.842Z,17.18
2018-05-26T01:03:45.094Z,17.13
2018-05-26T01:06:13.365Z,17.17
2018-05-26T01:08:41.621Z,17.04
2018-05-26T01:11:09.886Z,16.99
2018-05-26T01:13:38.929Z,16.92
2018-05-26T01:16:07.177Z,16.87
2018-05-26T01:18:35.449Z,16.93
2018-05-26T01:21:03.716Z,16.96
2018-05-26T01:23:31.973Z,16.87
2018-05-26T01:26:00.230Z,16.69
2018-05-26T01:28:28.512Z,16.77
2018-05-26T01:30:56.781Z,16.81
2018-05-26T01:33:25.035Z,16.83
2018-05-26T01:35:53.314Z,16.85
2018-05-26T01:38:21.569Z,16.63
2018-05-26T01:40:49.825Z,16.60
2018-05-26T01:43:18.096Z,16.43
2018-05-26T01:45:47.197Z,16.40
2018-05-26T01:48:16.213Z,16.43
2018-05-26T01:50:44.527Z,16.45
2018-05-26T01:53:12.778Z,16.49
2018-05-26T01:55:41.033Z,16.51
2018-05-26T01:58:09.333Z,16.54
2018-05-26T02:00:37.616Z,16.45
2018-05-26T02:03:05.861Z,16.41
2018-05-26T02:05:34.139Z,16.38
2018-05-26T02:08:02.431Z,16.34
2018-05-26T02:10:30.677Z,16.36
2018-05-26T02:12:58.967Z,16.40
2018-05-26T02:15:27.233Z,16.41
2018-05-26T02:17:55.572Z,16.42
2018-05-26T02:20:23.841Z,16.36
2018-05-26T02:22:52.098Z,16.29
2018-05-26T02:25:20.362Z,16.26
2018-05-26T02:27:48.632Z,16.18
2018-05-26T02:30:16.898Z,16.19
2018-05-26T02:32:45.153Z,16.15
2018-05-26T02:35:14.274Z,16.14
2018-05-26T02:37:42.534Z,16.18
2018-05-26T02:40:10.862Z,16.17
2018-05-26T02:42:39.135Z,16.11
2018-05-26T02:45:07.389Z,16.06
2018-05-26T02:47:35.663Z,15.90
2018-05-26T02:50:03.917Z,15.88
2018-05-26T02:52:32.168Z,15.82
2018-05-26T02:55:00.438Z,15.83
2018-05-26T02:57:28.704Z,15.86
2018-05-26T02:59:56.980Z,15.81
2018-05-26T03:02:25.262Z,15.88
2018-05-26T03:04:58.981Z,15.97
2018-05-26T03:07:33.511Z,15.88
2018-05-26T03:10:07.878Z,15.94
2018-05-26T03:12:41.750Z,15.90
2018-05-26T03:15:09.385Z,15.85
2018-05-26T03:20:38.471Z,15.71
2018-05-26T03:23:06.727Z,15.70
2018-05-26T03:25:34.995Z,15.63
2018-05-26T03:28:03.265Z,15.61
2018-05-26T03:30:31.525Z,15.56
2018-05-26T03:33:00.596Z,15.46
2018-05-26T03:35:28.867Z,15.46
2018-05-26T03:37:57.118Z,15.50
2018-05-26T03:40:25.393Z,15.57
2018-05-26T03:42:53.684Z,15.59
2018-05-26T03:45:21.938Z,15.61
2018-05-26T03:47:50.249Z,15.60
2018-05-26T03:50:18.524Z,15.63
2018-05-26T03:52:46.796Z,15.59
2018-05-26T03:55:42.596Z,15.57
2018-05-26T03:58:28.680Z,15.61
2018-05-26T04:00:56.965Z,15.67
2018-05-26T04:03:25.226Z,15.61
2018-05-26T04:05:53.571Z,15.53
2018-05-26T04:08:21.773Z,15.52
2018-05-26T04:10:50.093Z,15.39
2018-05-26T04:13:18.374Z,15.43
2018-05-26T04:15:46.641Z,15.53
2018-05-26T04:18:14.985Z,15.48
2018-05-26T04:20:43.284Z,15.61
2018-05-26T04:23:11.556Z,15.70
2018-05-26T04:25:39.825Z,15.78
2018-05-26T04:28:08.081Z,15.82
2018-05-26T04:30:36.376Z,15.88
2018-05-26T04:33:04.651Z,15.97
2018-05-26T04:35:32.924Z,15.95
2018-05-26T04:38:01.213Z,16.01
2018-05-26T04:40:29.517Z,16.01
2018-05-26T04:42:57.836Z,16.10
2018-05-26T04:45:26.116Z,16.14
2018-05-26T04:47:54.373Z,16.19
2018-05-26T04:50:24.345Z,16.26
2018-05-26T04:52:52.621Z,16.33
2018-05-26T04:55:20.930Z,16.38
2018-05-26T04:57:49.220Z,16.42
2018-05-26T05:00:18.265Z,16.51
2018-05-26T05:02:46.530Z,16.64
2018-05-26T05:05:14.802Z,16.69
2018-05-26T05:07:43.097Z,16.65
2018-05-26T05:10:11.370Z,16.76
2018-05-26T05:12:39.625Z,16.79
2018-05-26T05:15:07.908Z,16.94
2018-05-26T05:17:36.199Z,16.97
2018-05-26T05:20:04.457Z,17.04
2018-05-26T05:22:32.741Z,17.09
2018-05-26T05:25:01.093Z,17.19
2018-05-26T05:27:29.351Z,17.29
2018-05-26T05:29:58.386Z,17.37
2018-05-26T05:32:26.714Z,17.39
2018-05-26T05:34:54.992Z,17.35
2018-05-26T05:37:23.264Z,17.47
2018-05-26T05:39:51.517Z,17.61
2018-05-26T05:42:19.786Z,17.74
2018-05-26T05:44:48.072Z,17.83
2018-05-26T05:47:16.328Z,17.97
2018-05-26T05:49:44.651Z,18.07
2018-05-26T05:52:12.920Z,18.19
2018-05-26T05:54:41.173Z,18.29
2018-05-26T05:57:10.227Z,18.32
2018-05-26T05:59:38.579Z,18.05
2018-05-26T06:02:07.637Z,17.70
2018-05-26T06:04:35.913Z,17.69
2018-05-26T06:07:04.215Z,17.72
2018-05-26T06:09:32.468Z,17.63
2018-05-26T06:12:00.743Z,17.73
2018-05-26T06:14:29.025Z,17.99
2018-05-26T06:16:57.280Z,18.26
2018-05-26T06:19:25.565Z,18.51
2018-05-26T06:21:53.849Z,18.73
2018-05-26T06:24:22.133Z,18.88
2018-05-26T06:26:50.381Z,19.01
2018-05-26T06:29:18.653Z,19.18
2018-05-26T06:31:46.949Z,19.35
2018-05-26T06:34:15.168Z,19.31
2018-05-26T06:36:44.217Z,19.36
2018-05-26T06:39:12.457Z,19.36
2018-05-26T06:41:40.720Z,19.50
2018-05-26T06:44:09.799Z,19.53
2018-05-26T06:46:38.076Z,19.74
2018-05-26T06:49:07.121Z,19.89
2018-05-26T06:51:35.393Z,20.04
2018-05-26T06:54:03.648Z,20.14
2018-05-26T06:56:31.909Z,20.22
2018-05-26T06:59:00.952Z,20.40
2018-05-26T07:01:29.205Z,20.61
2018-05-26T07:03:57.452Z,20.81
2018-05-26T07:06:26.531Z,20.86
2018-05-26T07:08:54.842Z,20.76
2018-05-26T07:11:23.101Z,21.05
2018-05-26T07:13:52.137Z,21.29
2018-05-26T07:16:20.408Z,21.45
2018-05-26T07:18:48.737Z,21.62
2018-05-26T07:21:17.013Z,21.84
2018-05-26T07:23:45.260Z,22.06
2018-05-26T07:26:13.534Z,22.04
2018-05-26T07:28:41.839Z,22.19
2018-05-26T07:31:10.096Z,22.31
2018-05-26T07:33:38.387Z,22.55
2018-05-26T07:36:06.652Z,22.74
2018-05-26T07:38:34.939Z,22.79
2018-05-26T07:41:03.189Z,22.89
2018-05-26T07:43:31.477Z,23.07
2018-05-26T07:45:59.733Z,23.18
2018-05-26T07:48:28.012Z,23.04
2018-05-26T07:50:56.292Z,22.93
2018-05-26T07:53:24.557Z,23.25
2018-05-26T07:55:52.828Z,23.40
2018-05-26T07:58:21.117Z,23.53
2018-05-26T08:00:49.359Z,23.69
2018-05-26T08:03:18.384Z,23.82
2018-05-26T08:05:46.652Z,23.72
2018-05-26T08:08:14.905Z,23.90
2018-05-26T08:10:43.169Z,24.06
2018-05-26T08:13:12.205Z,24.16
2018-05-26T08:15:40.461Z,24.32
2018-05-26T08:18:08.710Z,24.37
2018-05-26T08:20:37.738Z,24.54
2018-05-26T08:23:06.001Z,24.65
2018-05-26T08:25:34.258Z,24.64
2018-05-26T08:28:03.297Z,24.46
2018-05-26T08:30:31.549Z,24.43
2018-05-26T08:32:59.817Z,24.44
2018-05-26T08:35:28.096Z,24.08
2018-05-26T08:37:56.369Z,24.39
2018-05-26T08:40:25.394Z,24.51
2018-05-26T08:42:53.672Z,24.63
2018-05-26T08:45:21.928Z,24.83
2018-05-26T08:47:50.192Z,24.94
2018-05-26T08:50:19.257Z,24.83
2018-05-26T08:52:47.511Z,24.94
2018-05-26T08:55:15.766Z,25.02
2018-05-26T08:57:44.030Z,24.75
2018-05-26T09:00:12.286Z,25.01
2018-05-26T09:02:41.309Z,24.91
2018-05-26T09:05:09.582Z,25.08
2018-05-26T09:07:37.846Z,25.12
2018-05-26T09:10:06.105Z,25.32
2018-05-26T09:12:35.222Z,25.15
2018-05-26T09:15:03.515Z,25.01
2018-05-26T09:17:31.777Z,25.20
2018-05-26T09:20:00.055Z,25.38
2018-05-26T09:22:28.308Z,25.55
2018-05-26T09:24:57.341Z,25.78
2018-05-26T09:27:25.608Z,25.91
2018-05-26T09:29:53.861Z,26.05
2018-05-26T09:32:22.121Z,26.18
2018-05-26T09:34:52.385Z,26.29
2018-05-26T09:37:20.677Z,26.24
2018-05-26T09:39:48.945Z,26.46
2018-05-26T09:42:17.193Z,26.46
2018-05-26T09:44:45.466Z,26.42
2018-05-26T09:47:13.758Z,26.39
2018-05-26T09:49:42.039Z,26.26
2018-05-26T09:52:10.304Z,26.59
2018-05-26T09:54:38.583Z,26.71
2018-05-26T09:57:06.845Z,26.86
2018-05-26T09:59:35.112Z,27.02
2018-05-26T10:02:03.414Z,26.79
2018-05-26T10:04:31.697Z,26.85
2018-05-26T10:07:00.067Z,26.85
2018-05-26T10:09:28.325Z,26.89
2018-05-26T10:11:57.348Z,27.18
2018-05-26T10:14:25.615Z,27.18
2018-05-26T10:16:53.885Z,27.25
2018-05-26T10:19:22.140Z,27.47
2018-05-26T10:21:51.174Z,27.89
2018-05-26T10:24:19.428Z,28.09
2018-05-26T10:26:47.712Z,28.15
2018-05-26T10:29:15.974Z,28.39
2018-05-26T10:31:44.228Z,28.32
2018-05-26T10:34:13.246Z,28.45
2018-05-26T10:36:41.516Z,28.61
2018-05-26T10:39:09.781Z,28.59
2018-05-26T10:41:38.825Z,28.24
2018-05-26T10:44:07.077Z,28.23
2018-05-26T10:46:35.341Z,28.15
2018-05-26T10:49:03.628Z,28.07
2018-05-26T10:51:31.889Z,28.35
2018-05-26T10:54:00.917Z,28.80
2018-05-26T10:56:29.185Z,28.92
2018-05-26T10:58:57.449Z,28.90
2018-05-26T11:01:25.701Z,28.78
2018-05-26T11:03:54.733Z,29.09
2018-05-26T11:06:22.992Z,29.18
2018-05-26T11:08:51.254Z,28.91
2018-05-26T11:11:20.359Z,29.05
2018-05-26T11:13:49.372Z,29.47
2018-05-26T11:16:17.625Z,29.74
2018-05-26T11:18:45.935Z,29.96
2018-05-26T11:21:14.196Z,30.05
2018-05-26T11:23:42.510Z,29.60
2018-05-26T11:26:10.829Z,29.69
2018-05-26T11:28:39.210Z,29.94
2018-05-26T11:31:08.270Z,29.96
2018-05-26T11:33:36.589Z,30.22
2018-05-26T11:36:04.844Z,30.21
2018-05-26T11:38:33.859Z,30.03
2018-05-26T11:41:02.133Z,30.19
2018-05-26T11:43:30.382Z,30.16
2018-05-26T11:45:58.633Z,29.99
2018-05-26T11:48:26.904Z,30.25
2018-05-26T11:50:55.205Z,30.09
2018-05-26T11:53:23.497Z,30.06
2018-05-26T11:55:51.737Z,30.37
2018-05-26T11:58:19.984Z,30.62
2018-05-26T12:00:48.258Z,30.95
2018-05-26T12:03:16.521Z,30.66
2018-05-26T12:05:44.777Z,30.86
2018-05-26T12:08:13.816Z,30.64
2018-05-26T12:10:42.081Z,30.75
2018-05-26T12:13:10.334Z,31.03
2018-05-26T12:15:39.879Z,30.95
2018-05-26T12:18:08.478Z,31.13
2018-05-26T12:20:37.581Z,31.20
2018-05-26T12:23:05.832Z,31.25
2018-05-26T12:25:34.137Z,31.18
2018-05-26T12:28:02.382Z,31.17
2018-05-26T12:30:31.445Z,31.12
2018-05-26T12:32:59.722Z,31.45
2018-05-26T12:35:28.741Z,31.40
2018-05-26T12:37:56.991Z,30.82
2018-05-26T12:40:25.283Z,31.07
2018-05-26T12:42:53.536Z,30.88
2018-05-26T12:45:22.569Z,30.94
2018-05-26T12:47:50.824Z,30.56
2018-05-26T12:50:19.088Z,30.61
2018-05-26T12:52:47.399Z,30.75
2018-05-26T12:55:15.669Z,30.96
2018-05-26T12:57:43.935Z,30.88
2018-05-26T13:00:12.186Z,31.41
2018-05-26T13:02:41.216Z,31.11
2018-05-26T13:05:09.468Z,31.75
2018-05-26T13:07:37.721Z,32.26
2018-05-26T13:10:06.758Z,32.27
2018-05-26T13:12:35.035Z,31.90
2018-05-26T13:15:03.298Z,32.45
2018-05-26T13:17:31.570Z,32.88
2018-05-26T13:19:59.822Z,32.41
2018-05-26T13:22:28.832Z,32.53
2018-05-26T13:24:57.102Z,32.99
2018-05-26T13:27:26.129Z,32.84
2018-05-26T13:29:54.400Z,32.71
2018-05-26T13:32:22.677Z,32.92
2018-05-26T13:34:50.926Z,33.06
2018-05-26T13:37:19.185Z,33.62
2018-05-26T13:39:47.454Z,33.93
2018-05-26T13:42:15.698Z,34.28
2018-05-26T13:44:43.962Z,34.23
2018-05-26T13:47:12.228Z,34.67
2018-05-26T13:49:40.486Z,35.55
2018-05-26T13:52:08.780Z,36.69
2018-05-26T13:54:37.095Z,38.05
2018-05-26T13:57:05.368Z,38.21
2018-05-26T13:59:33.621Z,38.99
2018-05-26T14:02:01.894Z,39.15
2018-05-26T14:04:30.158Z,40.02
2018-05-26T14:06:58.438Z,40.04
2018-05-26T14:09:27.134Z,39.86
2018-05-26T14:11:55.389Z,40.61
2018-05-26T14:14:23.641Z,40.28
2018-05-26T14:16:52.683Z,41.05
2018-05-26T14:19:20.927Z,40.49
2018-05-26T14:21:49.185Z,38.94
2018-05-26T14:24:18.276Z,37.39
2018-05-26T14:26:47.513Z,36.55
2018-05-26T14:29:15.773Z,35.50
2018-05-26T14:31:44.066Z,34.49
2018-05-26T14:34:12.312Z,34.00
2018-05-26T14:36:40.622Z,33.43
2018-05-26T14:39:08.891Z,34.18
2018-05-26T14:41:37.144Z,35.10
2018-05-26T14:44:06.170Z,36.86
2018-05-26T14:46:34.446Z,37.54
2018-05-26T14:49:02.701Z,38.64
2018-05-26T14:51:30.978Z,39.38
2018-05-26T14:53:59.246Z,38.81
2018-05-26T14:56:28.508Z,37.70
2018-05-26T14:58:56.829Z,37.11
2018-05-26T15:01:25.854Z,37.08
2018-05-26T15:03:54.125Z,37.84
2018-05-26T15:06:22.500Z,38.84
2018-05-26T15:08:50.804Z,39.53
2018-05-26T15:11:19.109Z,39.75
2018-05-26T15:13:47.360Z,38.50
2018-05-26T15:16:15.647Z,37.20
2018-05-26T15:18:43.892Z,36.54
2018-05-26T15:21:12.161Z,36.51
2018-05-26T15:23:40.441Z,37.15
2018-05-26T15:26:08.705Z,38.57
2018-05-26T15:28:36.961Z,39.24
2018-05-26T15:31:06.009Z,39.88
2018-05-26T15:33:34.269Z,39.82
2018-05-26T15:36:02.552Z,40.23
2018-05-26T15:38:30.817Z,40.62
2018-05-26T15:40:59.075Z,41.02
2018-05-26T15:43:27.340Z,41.67
2018-05-26T15:45:55.620Z,41.41
2018-05-26T15:48:24.659Z,41.10
2018-05-26T15:50:52.913Z,40.95
2018-05-26T15:53:21.185Z,41.05
2018-05-26T15:55:49.444Z,41.02
2018-05-26T15:58:17.713Z,40.56
2018-05-26T16:00:45.982Z,40.56
2018-05-26T16:03:15.012Z,40.55
2018-05-26T16:05:43.297Z,40.47
2018-05-26T16:08:11.544Z,40.39
2018-05-26T16:10:39.798Z,39.78
2018-05-26T16:13:08.121Z,39.95
2018-05-26T16:15:37.109Z,39.72
2018-05-26T16:18:05.365Z,39.46
2018-05-26T16:20:33.652Z,39.36
2018-05-26T16:23:01.963Z,39.65
2018-05-26T16:25:30.184Z,39.64
2018-05-26T16:27:59.210Z,39.82
2018-05-26T16:30:27.468Z,40.42
2018-05-26T16:32:59.115Z,40.17
2018-05-26T16:35:28.138Z,39.96
2018-05-26T16:37:56.387Z,40.00
2018-05-26T16:40:24.964Z,40.25
2018-05-26T16:42:53.224Z,40.12
2018-05-26T16:45:22.321Z,39.93
2018-05-26T16:47:51.352Z,38.46
2018-05-26T16:50:19.597Z,38.21
2018-05-26T16:52:48.621Z,37.70
2018-05-26T16:55:16.893Z,36.64
2018-05-26T16:57:45.152Z,35.81
2018-05-26T17:00:13.413Z,35.31
2018-05-26T17:02:41.673Z,35.41
2018-05-26T17:05:09.992Z,36.22
2018-05-26T17:07:38.264Z,36.80
2018-05-26T17:10:06.570Z,37.28
2018-05-26T17:12:34.827Z,37.74
2018-05-26T17:15:03.084Z,37.73
2018-05-26T17:17:32.104Z,37.90
2018-05-26T17:20:00.404Z,37.85
2018-05-26T17:22:28.653Z,38.18
2018-05-26T17:24:56.901Z,38.17
2018-05-26T17:27:25.940Z,38.29
2018-05-26T17:29:54.204Z,38.08
2018-05-26T17:32:22.461Z,37.67
2018-05-26T17:34:50.738Z,37.85
2018-05-26T17:37:19.006Z,38.17
2018-05-26T17:39:48.018Z,38.44
2018-05-26T17:42:16.290Z,38.52
2018-05-26T17:44:44.552Z,38.34
2018-05-26T17:47:12.809Z,38.01
2018-05-26T17:49:41.836Z,37.92
2018-05-26T17:52:10.118Z,37.70
2018-05-26T17:54:38.380Z,37.21
2018-05-26T17:57:06.644Z,36.49
2018-05-26T17:59:35.689Z,35.64
2018-05-26T18:02:05.286Z,34.87
2018-05-26T18:04:33.537Z,34.08
2018-05-26T18:07:01.788Z,33.27
2018-05-26T18:09:30.820Z,32.41
2018-05-26T18:11:59.091Z,31.93
2018-05-26T18:14:27.353Z,31.45
2018-05-26T18:16:55.625Z,30.99
2018-05-26T18:19:24.651Z,30.48
2018-05-26T18:21:52.914Z,30.19
2018-05-26T18:24:21.181Z,29.84
2018-05-26T18:26:52.444Z,29.44
2018-05-26T18:29:20.720Z,29.16
2018-05-26T18:31:48.985Z,28.71
2018-05-26T18:34:17.244Z,28.39
2018-05-26T18:36:45.517Z,27.98
2018-05-26T18:39:14.554Z,27.65
2018-05-26T18:41:42.825Z,27.43
2018-05-26T18:44:11.093Z,27.11
2018-05-26T18:46:39.348Z,26.78
2018-05-26T18:49:07.620Z,26.43
2018-05-26T18:51:36.664Z,26.11
2018-05-26T18:54:04.910Z,25.90
2018-05-26T18:56:33.165Z,25.61
2018-05-26T18:59:01.477Z,25.47
2018-05-26T19:01:29.788Z,25.23
2018-05-26T19:03:58.109Z,25.17
2018-05-26T19:06:26.484Z,25.13
2018-05-26T19:08:54.801Z,25.00
2018-05-26T19:11:23.081Z,24.92
2018-05-26T19:13:51.360Z,24.91
2018-05-26T19:16:19.617Z,24.79
2018-05-26T19:18:47.873Z,24.61
2018-05-26T19:21:16.149Z,24.34
2018-05-26T19:23:44.402Z,24.18
2018-05-26T19:26:13.445Z,23.91
2018-05-26T19:28:41.892Z,23.86
2018-05-26T19:31:10.140Z,23.78
2018-05-26T19:33:39.162Z,23.65
2018-05-26T19:36:07.424Z,23.64
2018-05-26T19:38:36.480Z,23.61
2018-05-26T19:41:04.739Z,23.50
2018-05-26T19:43:33.021Z,23.43
2018-05-26T19:46:01.292Z,23.24
2018-05-26T19:48:29.549Z,23.11
2018-05-26T19:50:57.844Z,23.04
2018-05-26T19:53:26.108Z,22.98
2018-05-26T19:55:54.363Z,22.81
2018-05-26T19:58:22.633Z,22.76
2018-05-26T20:00:51.649Z,22.61
2018-05-26T20:03:19.910Z,22.39
2018-05-26T20:05:48.210Z,22.34
2018-05-26T20:08:16.556Z,21.90
2018-05-26T20:10:45.601Z,21.68
2018-05-26T20:13:13.872Z,21.74
2018-05-26T20:15:42.125Z,21.66
2018-05-26T20:18:10.618Z,21.68
2018-05-26T20:20:39.030Z,21.67
2018-05-26T20:23:07.348Z,21.69
2018-05-26T20:25:35.619Z,21.65
2018-05-26T20:28:04.649Z,21.76
2018-05-26T20:30:32.921Z,21.79
2018-05-26T20:33:01.320Z,21.72
2018-05-26T20:35:29.593Z,21.59
2018-05-26T20:37:57.859Z,21.61
2018-05-26T20:40:26.191Z,21.58
2018-05-26T20:42:54.506Z,21.50
2018-05-26T20:45:22.760Z,21.40
2018-05-26T20:47:51.045Z,21.34
2018-05-26T20:50:19.308Z,21.17
2018-05-26T20:52:47.572Z,21.08
2018-05-26T20:55:16.594Z,21.10
2018-05-26T20:57:44.861Z,20.98
2018-05-26T21:00:13.146Z,20.95
2018-05-26T21:02:41.412Z,20.81
2018-05-26T21:05:09.675Z,20.58
2018-05-26T21:07:38.708Z,20.45
2018-05-26T21:10:06.968Z,20.38
2018-05-26T21:12:35.244Z,20.30
2018-05-26T21:15:03.538Z,20.13
2018-05-26T21:17:31.772Z,20.08
2018-05-26T21:20:00.824Z,20.07
2018-05-26T21:22:29.082Z,19.99
2018-05-26T21:24:57.324Z,19.89
2018-05-26T21:27:25.597Z,19.85
2018-05-26T21:29:53.857Z,19.76
2018-05-26T21:32:22.904Z,19.71
2018-05-26T21:34:51.182Z,19.43
2018-05-26T21:37:19.723Z,19.27
2018-05-26T21:39:48.761Z,19.34
2018-05-26T21:42:17.078Z,19.33
2018-05-26T21:44:45.276Z,19.30
2018-05-26T21:47:13.545Z,19.23
2018-05-26T21:49:42.565Z,19.12
2018-05-26T21:52:10.835Z,19.06
2018-05-26T21:54:39.097Z,19.01
2018-05-26T21:57:07.371Z,18.99
2018-05-26T21:59:36.377Z,18.81
2018-05-26T22:02:04.645Z,18.59
2018-05-26T22:04:32.912Z,18.66
2018-05-26T22:07:01.946Z,18.61
2018-05-26T22:09:30.198Z,18.67
2018-05-26T22:11:58.481Z,18.72
2018-05-26T22:14:26.771Z,18.68
2018-05-26T22:16:55.749Z,18.64
2018-05-26T22:19:24.073Z,18.56
2018-05-26T22:21:52.320Z,18.57
2018-05-26T22:24:20.590Z,18.54
2018-05-26T22:26:48.976Z,18.50
2018-05-26T22:29:17.240Z,18.33
2018-05-26T22:31:45.489Z,18.30
2018-05-26T22:34:14.528Z,18.28
2018-05-26T22:36:42.784Z,18.15
2018-05-26T22:39:11.043Z,18.10
2018-05-26T22:41:39.311Z,18.12
2018-05-26T22:44:08.351Z,18.08
2018-05-26T22:46:36.609Z,17.90
2018-05-26T22:49:04.873Z,17.83
2018-05-26T22:51:33.124Z,17.84
2018-05-26T22:54:02.173Z,17.80
2018-05-26T22:56:30.466Z,17.70
2018-05-26T22:58:58.717Z,17.62
2018-05-26T23:01:27.745Z,17.70
2018-05-26T23:03:56.020Z,17.74
2018-05-26T23:06:24.277Z,17.69
2018-05-26T23:08:52.537Z,17.70
2018-05-26T23:11:21.377Z,17.65
2018-05-26T23:13:50.388Z,17.68
2018-05-26T23:16:18.676Z,17.54
2018-05-26T23:18:46.942Z,17.58
2018-05-26T23:21:15.203Z,17.57
2018-05-26T23:23:44.229Z,17.55
2018-05-26T23:26:12.493Z,17.42
2018-05-26T23:28:40.773Z,17.29
2018-05-26T23:31:09.029Z,17.29
2018-05-26T23:33:38.068Z,17.19
2018-05-26T23:36:06.321Z,17.20
2018-05-26T23:38:34.584Z,17.16
2018-05-26T23:41:02.861Z,17.20
2018-05-26T23:43:31.881Z,17.20
2018-05-26T23:46:00.137Z,17.03
2018-05-26T23:48:28.432Z,17.06
2018-05-26T23:50:57.452Z,17.02
2018-05-26T23:53:25.720Z,17.00
2018-05-26T23:55:54.048Z,16.79
2018-05-26T23:58:23.085Z,16.76
